createdAt,value
2023-05-19T00:00:31.166Z,51649.72
2023-05-19T00:05:57.434Z,51665.72
2023-05-19T00:11:04.194Z,51719.72
2023-05-19T00:16:09.496Z,51703.72
2023-05-19T00:21:13.987Z,51737.72
2023-05-19T00:26:19.970Z,51745.72
2023-05-19T00:31:34.326Z,51777.72
2023-05-19T00:36:38.956Z,51785.72
2023-05-19T00:41:44.960Z,51809.72
2023-05-19T00:46:49.348Z,51813.72
2023-05-19T00:51:54.507Z,51789.72
2023-05-19T00:57:01.328Z,51835.72
2023-05-19T01:02:08.283Z,51817.72
2023-05-19T01:07:13.481Z,51861.72
2023-05-19T01:12:19.858Z,51841.72
2023-05-19T01:17:31.025Z,51855.72
2023-05-19T01:23:17.723Z,51857.72
2023-05-19T01:28:33.712Z,51827.72
2023-05-19T01:33:41.256Z,51859.72
2023-05-19T01:38:47.345Z,51901.72
2023-05-19T01:43:52.446Z,51897.72
2023-05-19T01:48:59.296Z,51889.72
2023-05-19T01:54:04.042Z,51895.72
2023-05-19T01:59:18.076Z,51869.72
2023-05-19T02:04:33.133Z,51885.72
2023-05-19T02:09:42.525Z,51873.72
2023-05-19T02:14:52.192Z,51861.72
2023-05-19T02:19:58.414Z,51853.72
2023-05-19T02:25:02.921Z,51869.72
2023-05-19T02:30:11.531Z,51897.72
2023-05-19T02:35:17.312Z,51901.72
2023-05-19T02:40:22.245Z,51883.72
2023-05-19T02:45:28.843Z,51903.72
2023-05-19T02:50:36.582Z,51891.72
2023-05-19T02:55:40.765Z,51881.72
2023-05-19T03:00:45.465Z,51917.72
2023-05-19T03:05:51.106Z,51919.69
2023-05-19T03:10:55.602Z,51905.72
2023-05-19T03:16:00.004Z,51901.72
2023-05-19T03:21:06.240Z,51921.72
2023-05-19T03:26:10.403Z,51913.72
2023-05-19T03:31:14.872Z,51917.72
2023-05-19T03:36:20.512Z,51917.72
2023-05-19T03:41:25.001Z,51889.72
2023-05-19T03:46:29.341Z,51901.72
2023-05-19T03:51:59.515Z,51887.72
2023-05-19T03:57:24.706Z,51929.72
2023-05-19T04:02:28.968Z,51971.69
2023-05-19T04:07:35.240Z,51901.72
2023-05-19T04:12:39.656Z,51905.72
2023-05-19T04:17:44.372Z,51893.72
2023-05-19T04:22:50.506Z,51901.72
2023-05-19T04:27:57.950Z,51889.72
2023-05-19T04:33:04.250Z,51869.72
2023-05-19T04:38:10.200Z,51839.72
2023-05-19T04:43:14.573Z,51907.72
2023-05-19T04:48:21.914Z,51869.72
2023-05-19T04:53:28.726Z,51879.72
2023-05-19T04:58:33.536Z,51885.72
2023-05-19T05:03:37.836Z,51883.72
2023-05-19T05:08:44.231Z,51885.72
2023-05-19T05:13:50.424Z,51903.72
2023-05-19T05:18:55.255Z,51891.72
2023-05-19T05:24:01.659Z,51905.72
2023-05-19T05:29:10.302Z,51869.72
2023-05-19T05:34:15.424Z,51909.72
2023-05-19T05:39:21.720Z,51909.72
2023-05-19T05:44:27.530Z,51915.72
2023-05-19T05:49:36.870Z,51921.72
2023-05-19T05:54:45.209Z,51947.69
2023-05-19T05:59:52.858Z,51891.72
2023-05-19T06:04:57.278Z,51921.72
2023-05-19T06:10:03.485Z,51937.69
2023-05-19T06:15:09.202Z,51963.69
2023-05-19T06:20:26.499Z,52001.69
2023-05-19T06:25:33.001Z,52003.69
2023-05-19T06:30:38.041Z,51981.69
2023-05-19T06:35:55.201Z,51963.69
2023-05-19T06:41:00.938Z,51973.69
2023-05-19T06:46:05.877Z,51989.69
2023-05-19T06:51:10.976Z,52005.69
2023-05-19T06:56:19.262Z,51931.69
2023-05-19T07:01:23.730Z,51945.69
2023-05-19T07:06:31.958Z,52023.69
2023-05-19T07:11:37.710Z,52013.69
2023-05-19T07:16:42.990Z,52025.69
2023-05-19T07:21:47.603Z,52019.69
2023-05-19T07:26:54.311Z,52009.69
2023-05-19T07:31:58.479Z,51987.69
2023-05-19T07:37:03.562Z,52013.69
2023-05-19T07:42:09.556Z,51949.69
2023-05-19T07:47:13.862Z,51923.72
2023-05-19T07:52:18.529Z,51981.69
2023-05-19T07:57:24.415Z,51985.69
2023-05-19T08:02:28.747Z,52009.69
2023-05-19T08:07:33.412Z,52015.69
2023-05-19T08:12:38.988Z,51923.72
2023-05-19T08:17:43.402Z,51971.69
2023-05-19T08:22:47.689Z,52011.69
2023-05-19T08:27:53.528Z,51941.72
2023-05-19T08:32:58.299Z,52015.69
2023-05-19T08:38:02.535Z,51953.69
2023-05-19T08:43:08.536Z,52019.69
2023-05-19T08:48:14.535Z,52089.69
2023-05-19T08:58:40.393Z,52197.72
2023-05-19T09:03:45.776Z,52207.72
2023-05-19T09:08:50.328Z,52141.69
2023-05-19T09:13:55.933Z,51941.72
2023-05-19T09:19:01.497Z,52025.69
2023-05-19T09:24:07.485Z,52015.69
2023-05-19T09:29:17.649Z,51999.69
2023-05-19T09:34:25.165Z,52041.69
2023-05-19T09:39:30.095Z,51969.69
2023-05-19T09:44:37.151Z,51949.69
2023-05-19T09:49:48.692Z,51971.69
2023-05-19T09:54:53.113Z,51945.69
2023-05-19T10:00:00.112Z,51903.72
2023-05-19T10:05:05.837Z,51913.72
2023-05-19T10:10:13.499Z,51921.72
2023-05-19T10:15:22.913Z,52021.69
2023-05-19T10:20:28.741Z,51959.72
2023-05-19T10:25:35.032Z,51965.69
2023-05-19T10:30:43.237Z,52005.69
2023-05-19T10:36:17.718Z,51985.69
2023-05-19T10:41:29.958Z,52113.69
2023-05-19T10:46:35.636Z,52021.69
2023-05-19T10:51:40.472Z,52059.69
2023-05-19T10:56:47.730Z,52097.69
2023-05-19T11:01:53.508Z,52153.69
2023-05-19T11:06:58.109Z,52185.69
2023-05-19T11:12:05.194Z,52099.69
2023-05-19T11:17:15.990Z,52135.69
2023-05-19T11:22:20.252Z,52097.69
2023-05-19T11:27:29.111Z,52101.69
2023-05-19T11:32:36.112Z,52201.69
2023-05-19T11:37:42.848Z,52201.69
2023-05-19T11:42:47.164Z,52165.69
2023-05-19T11:53:05.400Z,52319.72
2023-05-19T11:58:09.948Z,52227.72
2023-05-19T12:03:15.915Z,52119.69
2023-05-19T12:08:20.480Z,52129.69
2023-05-19T12:13:25.099Z,52103.69
2023-05-19T12:18:32.954Z,52177.69
2023-05-19T12:23:37.299Z,52201.69
2023-05-19T12:28:41.688Z,52269.72
2023-05-19T12:33:52.131Z,52219.72
2023-05-19T12:38:56.839Z,52333.72
2023-05-19T12:44:01.128Z,52373.72
2023-05-19T12:49:06.992Z,52353.72
2023-05-19T12:54:12.216Z,52241.72
2023-05-19T12:59:30.933Z,52239.72
2023-05-19T13:04:43.429Z,52229.72
2023-05-19T13:09:48.450Z,52145.69
2023-05-19T13:14:55.407Z,52269.72
2023-05-19T13:20:01.289Z,52191.72
2023-05-19T13:25:05.983Z,52153.69
2023-05-19T13:30:11.153Z,52219.72
2023-05-19T13:35:16.920Z,52231.72
2023-05-19T13:40:21.510Z,52193.72
2023-05-19T13:45:26.344Z,52253.72
2023-05-19T13:50:31.922Z,52347.72
2023-05-19T13:55:36.501Z,52345.72
2023-05-19T14:00:41.149Z,52189.72
2023-05-19T14:05:46.752Z,52263.72
2023-05-19T14:10:52.587Z,52133.69
2023-05-19T14:15:57.076Z,52123.69
2023-05-19T14:21:02.711Z,52033.69
2023-05-19T14:26:07.114Z,52069.69
2023-05-19T14:31:13.307Z,52037.69
2023-05-19T14:36:19.008Z,52061.69
2023-05-19T14:41:23.346Z,52101.69
2023-05-19T14:46:27.555Z,52071.69
2023-05-19T14:51:33.910Z,52045.69
2023-05-19T14:56:38.349Z,52049.69
2023-05-19T15:01:42.905Z,52045.69
2023-05-19T15:06:58.066Z,52009.69
2023-05-19T15:12:13.107Z,52005.69
2023-05-19T15:17:17.330Z,52013.69
2023-05-19T15:22:23.274Z,51937.69
2023-05-19T15:27:28.035Z,51911.72
2023-05-19T15:32:32.353Z,51877.72
2023-05-19T15:37:38.267Z,51917.72
2023-05-19T15:42:42.475Z,51885.72
2023-05-19T15:47:46.852Z,51935.69
2023-05-19T15:52:52.703Z,51839.72
2023-05-19T15:57:57.255Z,51821.72
2023-05-19T16:03:01.596Z,51827.72
2023-05-19T16:08:08.781Z,51791.72
2023-05-19T16:13:13.262Z,51853.72
2023-05-19T16:18:17.557Z,51883.72
2023-05-19T16:23:24.888Z,51877.72
2023-05-19T16:28:29.418Z,51841.72
2023-05-19T16:33:33.817Z,51877.72
2023-05-19T16:38:39.469Z,51921.72
2023-05-19T16:43:43.734Z,51863.72
2023-05-19T16:48:47.960Z,51855.72
2023-05-19T16:53:54.062Z,51869.72
2023-05-19T16:58:58.232Z,51891.72
2023-05-19T17:04:02.333Z,51869.72
2023-05-19T17:09:07.976Z,51869.72
2023-05-19T17:14:12.240Z,51889.72
2023-05-19T17:19:16.493Z,51845.72
2023-05-19T17:24:22.182Z,51843.72
2023-05-19T17:29:27.997Z,51879.72
2023-05-19T17:34:32.174Z,51843.72
2023-05-19T17:39:37.784Z,51893.72
2023-05-19T17:44:41.916Z,51829.72
2023-05-19T17:49:46.361Z,51837.72
2023-05-19T17:54:52.944Z,51843.72
2023-05-19T17:59:57.908Z,51919.69
2023-05-19T18:05:03.354Z,51911.72
2023-05-19T18:10:15.737Z,51891.72
2023-05-19T18:15:20.359Z,51941.72
2023-05-19T18:20:24.554Z,51933.69
2023-05-19T18:25:30.505Z,52009.69
2023-05-19T18:30:34.899Z,51997.69
2023-05-19T18:35:39.861Z,52019.69
2023-05-19T18:40:46.049Z,51993.69
2023-05-19T18:45:50.618Z,52035.69
2023-05-19T18:50:54.978Z,52043.69
2023-05-19T18:56:01.112Z,52045.69
2023-05-19T19:01:06.099Z,52039.69
2023-05-19T19:06:10.500Z,52011.69
2023-05-19T19:11:16.130Z,52049.69
2023-05-19T19:16:20.443Z,52059.69
2023-05-19T19:21:25.958Z,52087.69
2023-05-19T19:26:31.630Z,52083.69
2023-05-19T19:31:36.331Z,52103.69
2023-05-19T19:36:40.853Z,52137.69
2023-05-19T19:41:46.688Z,52191.72
2023-05-19T19:46:51.308Z,52181.69
2023-05-19T19:51:56.155Z,52199.72
2023-05-19T19:57:02.545Z,52173.69
2023-05-19T20:02:07.336Z,52153.69
2023-05-19T20:07:11.491Z,52159.69
2023-05-19T20:12:17.392Z,52203.69
2023-05-19T20:17:22.054Z,52221.72
2023-05-19T20:22:26.597Z,52199.72
2023-05-19T20:27:32.404Z,52207.72
2023-05-19T20:32:36.897Z,52219.72
2023-05-19T20:37:41.443Z,52171.69
2023-05-19T20:42:47.525Z,52227.72
2023-05-19T20:47:52.130Z,52221.72
2023-05-19T20:52:56.359Z,52227.72
2023-05-19T20:58:02.416Z,52239.72
2023-05-19T21:03:07.081Z,52239.72
2023-05-19T21:08:13.037Z,52221.72
2023-05-19T21:13:20.010Z,52239.72
2023-05-19T21:18:24.221Z,52217.72
2023-05-19T21:23:28.385Z,52219.72
2023-05-19T21:28:34.596Z,52203.69
2023-05-19T21:33:39.455Z,52231.72
2023-05-19T21:38:43.635Z,52215.72
2023-05-19T21:43:49.500Z,52179.69
2023-05-19T21:48:53.642Z,52209.72
2023-05-19T21:53:57.823Z,52253.72
2023-05-19T21:59:03.384Z,52217.72
2023-05-19T22:04:07.820Z,52245.72
2023-05-19T22:09:12.155Z,52227.72
2023-05-19T22:14:17.938Z,52245.72
2023-05-19T22:19:22.130Z,52241.72
2023-05-19T22:24:26.516Z,52253.72
2023-05-19T22:29:34.218Z,52243.72
2023-05-19T22:34:38.793Z,52277.72
2023-05-19T22:39:43.006Z,52269.72
2023-05-19T22:44:48.604Z,52269.72
2023-05-19T22:49:54.766Z,52261.72
2023-05-19T22:54:59.346Z,52239.72
2023-05-19T23:00:05.420Z,52271.72
2023-05-19T23:05:10.651Z,52239.72
2023-05-19T23:10:14.871Z,52245.72
2023-05-19T23:15:20.529Z,52283.72
2023-05-19T23:20:24.643Z,52259.72
2023-05-19T23:25:28.932Z,52255.72
2023-05-19T23:30:38.283Z,52231.72
2023-05-19T23:35:42.548Z,52281.72
2023-05-19T23:40:46.915Z,52257.72
2023-05-19T23:45:52.455Z,52283.72
2023-05-19T23:50:57.036Z,52285.72
2023-05-19T23:56:01.452Z,52303.72
